createdAt,value
2018-02-07T00:01:05.339Z,40.93
2018-02-07T00:03:32.801Z,41.80
2018-02-07T00:06:00.264Z,41.73
2018-02-07T00:08:28.492Z,42.10
2018-02-07T00:10:55.969Z,42.13
2018-02-07T00:13:23.440Z,41.20
2018-02-07T00:15:50.920Z,42.73
2018-02-07T00:18:18.468Z,44.67
2018-02-07T00:20:46.045Z,49.87
2018-02-07T00:23:13.507Z,42.50
2018-02-07T00:25:40.981Z,47.40
2018-02-07T00:28:08.493Z,43.47
2018-02-07T00:30:35.967Z,47.07
2018-02-07T00:33:04.208Z,46.23
2018-02-07T00:35:31.699Z,52.17
2018-02-07T00:37:59.201Z,46.43
2018-02-07T00:40:26.773Z,48.77
2018-02-07T00:42:54.269Z,47.07
2018-02-07T00:45:21.748Z,45.27
2018-02-07T00:47:49.328Z,46.57
2018-02-07T00:50:16.817Z,43.50
2018-02-07T00:52:44.384Z,43.33
2018-02-07T00:55:11.867Z,46.50
2018-02-07T00:57:39.358Z,43.57
2018-02-07T01:00:06.845Z,43.67
2018-02-07T01:02:34.337Z,47.23
2018-02-07T01:05:01.818Z,46.07
2018-02-07T01:07:29.297Z,43.73
2018-02-07T01:09:56.889Z,45.33
2018-02-07T01:12:24.363Z,43.87
2018-02-07T01:14:51.857Z,46.77
2018-02-07T01:17:19.342Z,43.40
2018-02-07T01:19:46.813Z,46.93
2018-02-07T01:22:14.300Z,45.97
2018-02-07T01:24:41.769Z,47.73
2018-02-07T01:27:09.285Z,48.57
2018-02-07T01:29:36.773Z,48.17
2018-02-07T01:32:04.244Z,47.57
2018-02-07T01:34:31.743Z,43.87
2018-02-07T01:36:59.225Z,44.37
2018-02-07T01:39:26.706Z,45.17
2018-02-07T01:41:54.172Z,46.97
2018-02-07T01:44:21.635Z,45.67
2018-02-07T01:46:49.119Z,49.97
2018-02-07T01:49:16.581Z,47.57
2018-02-07T01:51:44.053Z,46.67
2018-02-07T01:54:11.517Z,44.80
2018-02-07T01:56:38.985Z,48.67
2018-02-07T01:59:06.468Z,45.20
2018-02-07T02:01:33.965Z,49.17
2018-02-07T02:04:01.436Z,44.03
2018-02-07T02:06:28.926Z,45.70
2018-02-07T02:08:56.399Z,44.27
2018-02-07T02:11:23.875Z,43.17
2018-02-07T02:13:51.348Z,45.87
2018-02-07T02:16:18.819Z,47.23
2018-02-07T02:18:47.077Z,45.90
2018-02-07T02:21:15.130Z,43.77
2018-02-07T02:23:42.597Z,46.63
2018-02-07T02:26:10.837Z,45.73
2018-02-07T02:28:38.308Z,48.20
2018-02-07T02:31:05.793Z,50.47
2018-02-07T02:33:33.313Z,45.10
2018-02-07T02:36:12.685Z,46.27
2018-02-07T02:38:40.164Z,47.17
2018-02-07T02:41:07.635Z,51.17
2018-02-07T02:43:35.142Z,49.77
2018-02-07T02:46:02.613Z,52.67
2018-02-07T02:48:30.112Z,48.03
2018-02-07T02:50:57.600Z,46.17
2018-02-07T02:53:25.083Z,48.77
2018-02-07T02:55:52.560Z,42.70
2018-02-07T02:58:20.029Z,46.17
2018-02-07T03:00:47.497Z,45.90
2018-02-07T03:03:15.746Z,47.03
2018-02-07T03:05:43.218Z,45.23
2018-02-07T03:08:10.770Z,47.50
2018-02-07T03:10:39.005Z,41.37
2018-02-07T03:13:06.485Z,46.20
2018-02-07T03:15:33.994Z,45.03
2018-02-07T03:18:01.653Z,44.00
2018-02-07T03:20:29.285Z,46.53
2018-02-07T03:22:56.786Z,39.83
2018-02-07T03:25:24.355Z,45.43
2018-02-07T03:27:51.947Z,41.00
2018-02-07T03:30:19.531Z,45.43
2018-02-07T03:32:47.012Z,45.07
2018-02-07T03:35:14.478Z,43.37
2018-02-07T03:37:41.953Z,44.07
2018-02-07T03:40:09.414Z,44.90
2018-02-07T03:42:37.672Z,42.37
2018-02-07T03:45:05.158Z,44.57
2018-02-07T03:47:32.635Z,44.00
2018-02-07T03:50:00.113Z,43.73
2018-02-07T03:52:27.624Z,39.57
2018-02-07T03:54:55.104Z,36.17
2018-02-07T03:57:22.588Z,42.17
2018-02-07T03:59:50.055Z,42.60
2018-02-07T04:02:17.580Z,40.33
2018-02-07T04:04:45.142Z,42.13
2018-02-07T04:07:12.727Z,41.37
2018-02-07T04:09:40.189Z,42.17
2018-02-07T04:12:07.696Z,45.00
2018-02-07T04:14:35.195Z,42.37
2018-02-07T04:17:02.680Z,42.50
2018-02-07T04:19:30.151Z,41.17
2018-02-07T04:21:57.621Z,48.37
2018-02-07T04:24:25.085Z,41.63
2018-02-07T04:26:52.578Z,44.27
2018-02-07T04:29:20.061Z,41.03
2018-02-07T04:31:47.573Z,47.93
2018-02-07T04:34:15.045Z,44.23
2018-02-07T04:36:42.542Z,42.13
2018-02-07T04:39:10.036Z,44.70
2018-02-07T04:41:37.518Z,44.93
2018-02-07T04:44:05.001Z,50.67
2018-02-07T04:46:32.512Z,45.53
2018-02-07T04:48:59.981Z,44.27
2018-02-07T04:51:27.466Z,45.23
2018-02-07T04:53:55.053Z,46.63
2018-02-07T04:56:22.570Z,45.70
2018-02-07T04:58:50.044Z,41.40
2018-02-07T05:01:17.516Z,47.37
2018-02-07T05:03:45.252Z,45.70
2018-02-07T05:06:13.532Z,41.37
2018-02-07T05:08:41.005Z,42.57
2018-02-07T05:11:08.478Z,46.67
2018-02-07T05:13:35.991Z,42.03
2018-02-07T05:16:03.564Z,44.23
2018-02-07T05:18:31.027Z,41.20
2018-02-07T05:20:58.502Z,43.20
2018-02-07T05:23:25.971Z,40.77
2018-02-07T05:25:53.447Z,42.90
2018-02-07T05:28:20.929Z,40.15
2018-02-07T05:30:49.209Z,56.83
2018-02-07T05:33:16.700Z,49.03
2018-02-07T05:35:44.269Z,41.23
2018-02-07T05:38:11.752Z,47.57
2018-02-07T05:40:39.237Z,48.30
2018-02-07T05:43:06.711Z,56.30
2018-02-07T05:45:34.220Z,53.23
2018-02-07T05:48:01.708Z,48.77
2018-02-07T05:50:29.172Z,46.60
2018-02-07T05:52:57.416Z,47.37
2018-02-07T05:55:24.921Z,56.77
2018-02-07T05:57:52.405Z,54.40
2018-02-07T06:00:19.899Z,52.33
2018-02-07T06:02:47.394Z,48.67
2018-02-07T06:05:16.465Z,52.30
2018-02-07T06:07:44.130Z,47.97
2018-02-07T06:10:11.665Z,46.27
2018-02-07T06:12:39.192Z,44.77
2018-02-07T06:15:07.436Z,42.70
2018-02-07T06:17:34.909Z,47.13
2018-02-07T06:20:02.436Z,46.10
2018-02-07T06:22:30.016Z,45.77
2018-02-07T06:24:57.602Z,46.23
2018-02-07T06:27:25.199Z,50.30
2018-02-07T06:29:52.664Z,42.37
2018-02-07T06:32:20.166Z,43.93
2018-02-07T06:34:47.971Z,44.83
2018-02-07T06:37:16.273Z,48.30
2018-02-07T06:39:43.859Z,47.97
2018-02-07T06:42:11.447Z,43.23
2018-02-07T06:44:39.021Z,48.13
2018-02-07T06:47:06.492Z,45.57
2018-02-07T06:49:33.997Z,45.83
2018-02-07T06:52:01.495Z,56.40
2018-02-07T06:54:28.974Z,48.77
2018-02-07T06:56:56.465Z,57.92
2018-02-07T06:59:23.941Z,86.33
2018-02-07T07:01:51.423Z,94.60
2018-02-07T07:04:18.912Z,57.63
2018-02-07T07:06:46.497Z,49.90
2018-02-07T07:09:15.177Z,50.43
2018-02-07T07:11:42.668Z,49.20
2018-02-07T07:14:10.164Z,41.50
2018-02-07T07:16:38.433Z,47.20
2018-02-07T07:19:05.902Z,44.73
2018-02-07T07:21:33.377Z,49.70
2018-02-07T07:24:00.844Z,47.13
2018-02-07T07:26:28.357Z,46.93
2018-02-07T07:28:55.821Z,48.80
2018-02-07T07:31:24.078Z,48.23
2018-02-07T07:33:51.547Z,45.13
2018-02-07T07:36:19.017Z,47.20
2018-02-07T07:38:46.491Z,46.97
2018-02-07T07:41:14.026Z,49.20
2018-02-07T07:43:41.507Z,54.30
2018-02-07T07:46:09.020Z,49.70
2018-02-07T07:48:36.515Z,52.57
2018-02-07T07:51:03.984Z,49.93
2018-02-07T07:53:31.563Z,51.27
2018-02-07T07:55:59.258Z,51.20
2018-02-07T07:58:26.730Z,44.07
2018-02-07T08:00:54.220Z,45.20
2018-02-07T08:03:21.703Z,46.67
2018-02-07T08:05:49.286Z,43.87
2018-02-07T08:08:16.779Z,43.70
2018-02-07T08:10:44.268Z,45.93
2018-02-07T08:13:11.764Z,43.37
2018-02-07T08:15:39.316Z,42.70
2018-02-07T08:18:06.781Z,39.03
2018-02-07T08:20:35.043Z,39.73
2018-02-07T08:23:02.504Z,38.10
2018-02-07T08:25:30.006Z,41.53
2018-02-07T08:27:57.496Z,44.83
2018-02-07T08:30:24.953Z,42.90
2018-02-07T08:32:52.467Z,38.47
2018-02-07T08:35:19.936Z,46.33
2018-02-07T08:37:47.418Z,40.13
2018-02-07T08:40:14.889Z,42.63
2018-02-07T08:42:42.386Z,41.73
2018-02-07T08:45:10.063Z,39.23
2018-02-07T08:47:37.556Z,41.47
2018-02-07T08:50:05.028Z,43.83
2018-02-07T08:52:32.498Z,38.23
2018-02-07T08:55:00.035Z,40.00
2018-02-07T08:57:27.523Z,38.90
2018-02-07T08:59:54.993Z,42.73
2018-02-07T09:02:22.508Z,45.03
2018-02-07T09:04:50.015Z,41.40
2018-02-07T09:07:17.503Z,36.57
2018-02-07T09:09:45.015Z,38.30
2018-02-07T09:12:12.485Z,36.53
2018-02-07T09:14:40.000Z,41.70
2018-02-07T09:17:07.464Z,40.83
2018-02-07T09:19:34.984Z,40.77
2018-02-07T09:22:02.565Z,38.57
2018-02-07T09:24:30.136Z,39.37
2018-02-07T09:26:57.596Z,42.97
2018-02-07T09:29:25.067Z,40.90
2018-02-07T09:31:53.298Z,43.60
2018-02-07T09:34:20.808Z,40.77
2018-02-07T09:36:48.308Z,42.53
2018-02-07T09:39:15.811Z,42.10
2018-02-07T09:41:43.289Z,38.20
2018-02-07T09:44:10.805Z,41.67
2018-02-07T09:46:38.293Z,45.70
2018-02-07T09:49:05.772Z,36.83
2018-02-07T09:51:33.231Z,36.00
2018-02-07T09:54:00.705Z,36.33
2018-02-07T09:56:28.181Z,39.50
2018-02-07T09:58:55.685Z,39.13
2018-02-07T10:01:23.146Z,37.20
2018-02-07T10:03:50.649Z,38.90
2018-02-07T10:06:18.167Z,37.53
2018-02-07T10:08:45.637Z,39.93
2018-02-07T10:11:13.133Z,39.80
2018-02-07T10:13:40.596Z,41.23
2018-02-07T10:16:08.830Z,39.07
2018-02-07T10:18:36.341Z,41.00
2018-02-07T10:21:03.833Z,40.20
2018-02-07T10:23:31.312Z,41.30
2018-02-07T10:25:58.928Z,40.27
2018-02-07T10:28:26.395Z,42.53
2018-02-07T10:30:53.866Z,42.83
2018-02-07T10:33:21.391Z,42.47
2018-02-07T10:35:48.877Z,45.60
2018-02-07T10:38:16.340Z,38.23
2018-02-07T10:40:43.833Z,45.80
2018-02-07T10:43:11.303Z,45.17
2018-02-07T10:45:38.758Z,44.23
2018-02-07T10:48:06.243Z,48.00
2018-02-07T10:50:33.700Z,49.23
2018-02-07T10:53:01.273Z,41.80
2018-02-07T10:55:28.761Z,42.17
2018-02-07T10:57:56.236Z,42.23
2018-02-07T11:00:23.695Z,36.60
2018-02-07T11:02:51.945Z,38.10
2018-02-07T11:05:19.408Z,42.33
2018-02-07T11:07:46.875Z,41.47
2018-02-07T11:10:14.337Z,40.43
2018-02-07T11:12:41.811Z,39.97
2018-02-07T11:15:10.101Z,41.90
2018-02-07T11:17:37.584Z,42.07
2018-02-07T11:20:05.033Z,37.83
2018-02-07T11:22:32.557Z,43.37
2018-02-07T11:25:00.019Z,39.90
2018-02-07T11:27:27.487Z,40.53
2018-02-07T11:29:55.721Z,40.73
2018-02-07T11:32:23.179Z,42.30
2018-02-07T11:34:50.655Z,39.50
2018-02-07T11:37:18.227Z,41.60
2018-02-07T11:39:45.701Z,43.67
2018-02-07T11:42:13.166Z,41.80
2018-02-07T11:44:40.628Z,41.53
2018-02-07T11:47:08.148Z,44.47
2018-02-07T11:49:35.625Z,40.57
2018-02-07T11:52:03.118Z,43.07
2018-02-07T11:54:30.579Z,42.03
2018-02-07T11:56:58.074Z,41.40
2018-02-07T11:59:25.572Z,40.57
2018-02-07T12:01:53.032Z,46.53
2018-02-07T12:04:20.497Z,42.63
2018-02-07T12:06:47.979Z,45.83
2018-02-07T12:09:15.512Z,45.93
2018-02-07T12:11:43.079Z,42.83
2018-02-07T12:14:10.556Z,39.93
2018-02-07T12:16:38.020Z,45.90
2018-02-07T12:19:05.536Z,40.10
2018-02-07T12:21:33.028Z,42.17
2018-02-07T12:24:00.501Z,43.93
2018-02-07T12:26:27.975Z,44.13
2018-02-07T12:28:55.481Z,45.23
2018-02-07T12:31:22.940Z,42.20
2018-02-07T12:33:50.415Z,41.77
2018-02-07T12:36:17.873Z,44.17
2018-02-07T12:38:45.338Z,40.23
2018-02-07T12:41:12.790Z,38.57
2018-02-07T12:43:41.151Z,42.43
2018-02-07T12:46:08.606Z,39.37
2018-02-07T12:48:36.115Z,43.47
2018-02-07T12:51:03.587Z,41.60
2018-02-07T12:53:31.047Z,43.23
2018-02-07T12:55:58.562Z,42.47
2018-02-07T12:58:26.038Z,39.97
2018-02-07T13:00:53.497Z,46.13
2018-02-07T13:03:21.007Z,42.97
2018-02-07T13:05:48.498Z,38.37
2018-02-07T13:08:15.967Z,37.43
2018-02-07T13:10:43.417Z,44.57
2018-02-07T13:13:10.903Z,42.37
2018-02-07T13:15:38.353Z,40.23
2018-02-07T13:18:06.604Z,42.03
2018-02-07T13:20:34.069Z,41.33
2018-02-07T13:23:01.578Z,39.90
2018-02-07T13:25:29.028Z,39.70
2018-02-07T13:27:56.500Z,39.30
2018-02-07T13:30:24.015Z,40.03
2018-02-07T13:32:51.469Z,40.20
2018-02-07T13:35:18.927Z,39.47
2018-02-07T13:37:47.178Z,44.80
2018-02-07T13:40:14.662Z,40.73
2018-02-07T13:42:42.117Z,41.27
2018-02-07T13:45:09.625Z,41.63
2018-02-07T13:47:37.097Z,38.03
2018-02-07T13:50:04.562Z,39.10
2018-02-07T13:52:32.017Z,38.57
2018-02-07T13:55:00.257Z,46.10
2018-02-07T13:57:27.748Z,42.97
2018-02-07T13:59:55.209Z,43.23
2018-02-07T14:02:22.663Z,40.13
2018-02-07T14:04:50.876Z,44.40
2018-02-07T14:07:18.337Z,41.20
2018-02-07T14:09:45.873Z,36.00
2018-02-07T14:12:13.325Z,38.10
2018-02-07T14:14:40.828Z,39.37
2018-02-07T14:17:08.298Z,34.73
2018-02-07T14:19:35.804Z,35.97
2018-02-07T14:22:03.297Z,39.70
2018-02-07T14:24:30.790Z,38.00
2018-02-07T14:26:58.297Z,45.83
2018-02-07T14:29:26.465Z,41.70
2018-02-07T14:31:53.957Z,39.17
2018-02-07T14:34:21.438Z,44.93
2018-02-07T14:36:48.945Z,40.40
2018-02-07T14:39:16.396Z,41.70
2018-02-07T14:41:43.877Z,40.50
2018-02-07T14:44:11.359Z,36.83
2018-02-07T14:46:39.933Z,43.00
2018-02-07T14:49:07.565Z,48.27
2018-02-07T14:51:35.918Z,48.53
2018-02-07T14:54:03.434Z,45.50
2018-02-07T14:56:30.885Z,51.70
2018-02-07T14:58:59.130Z,52.57
2018-02-07T15:01:26.616Z,41.20
2018-02-07T15:03:54.094Z,37.37
2018-02-07T15:06:21.573Z,38.63
2018-02-07T15:08:49.022Z,39.13
2018-02-07T15:11:19.317Z,40.80
2018-02-07T15:13:46.889Z,42.37
2018-02-07T15:16:15.157Z,44.83
2018-02-07T15:18:42.856Z,45.60
2018-02-07T15:21:10.316Z,46.83
2018-02-07T15:23:38.602Z,44.13
2018-02-07T15:26:06.081Z,45.67
2018-02-07T15:28:33.542Z,46.90
2018-02-07T15:31:01.872Z,47.80
2018-02-07T15:33:29.387Z,46.33
2018-02-07T15:35:56.923Z,44.33
2018-02-07T15:38:24.497Z,52.63
2018-02-07T15:40:52.026Z,45.30
2018-02-07T15:43:19.566Z,47.37
2018-02-07T15:45:47.212Z,51.67
2018-02-07T15:48:14.708Z,47.10
2018-02-07T15:50:42.162Z,58.60
2018-02-07T15:53:11.109Z,56.43
2018-02-07T15:55:38.614Z,58.07
2018-02-07T15:58:06.102Z,52.73
2018-02-07T16:00:33.690Z,93.17
2018-02-07T16:03:01.155Z,85.60
2018-02-07T16:05:28.641Z,79.73
2018-02-07T16:07:56.122Z,69.63
2018-02-07T16:10:23.606Z,65.37
2018-02-07T16:12:51.094Z,62.47
2018-02-07T16:15:18.573Z,52.13
2018-02-07T16:17:46.034Z,52.90
2018-02-07T16:20:13.493Z,45.83
2018-02-07T16:22:41.175Z,54.33
2018-02-07T16:25:08.664Z,48.07
2018-02-07T16:27:36.131Z,53.03
2018-02-07T16:30:04.357Z,65.60
2018-02-07T16:32:31.867Z,65.27
2018-02-07T16:34:59.360Z,64.93
2018-02-07T16:37:26.809Z,76.87
2018-02-07T16:39:54.269Z,68.97
2018-02-07T16:42:21.797Z,61.07
2018-02-07T16:44:49.278Z,51.00
2018-02-07T16:47:16.791Z,49.77
2018-02-07T16:49:44.248Z,46.43
2018-02-07T16:52:11.713Z,42.27
2018-02-07T16:54:39.181Z,46.90
2018-02-07T16:57:06.645Z,48.70
2018-02-07T16:59:34.161Z,45.40
2018-02-07T17:02:01.622Z,45.17
2018-02-07T17:04:29.090Z,50.40
2018-02-07T17:06:56.613Z,51.03
2018-02-07T17:09:24.089Z,47.60
2018-02-07T17:11:51.550Z,50.33
2018-02-07T17:14:19.246Z,47.63
2018-02-07T17:16:46.736Z,56.10
2018-02-07T17:19:14.197Z,56.00
2018-02-07T17:21:41.711Z,62.20
2018-02-07T17:24:09.982Z,50.40
2018-02-07T17:26:37.446Z,45.13
2018-02-07T17:29:04.907Z,43.20
2018-02-07T17:31:33.137Z,48.00
2018-02-07T17:34:00.658Z,52.77
2018-02-07T17:36:28.264Z,46.67
2018-02-07T17:38:55.744Z,49.00
2018-02-07T17:41:23.351Z,52.97
2018-02-07T17:43:51.607Z,50.37
2018-02-07T17:46:19.109Z,55.57
2018-02-07T17:48:46.595Z,51.43
2018-02-07T17:51:14.170Z,50.60
2018-02-07T17:53:41.655Z,55.20
2018-02-07T17:56:09.265Z,52.80
2018-02-07T17:58:36.722Z,55.83
2018-02-07T18:01:04.193Z,50.70
2018-02-07T18:03:31.681Z,46.10
2018-02-07T18:05:59.150Z,47.57
2018-02-07T18:08:26.622Z,49.93
2018-02-07T18:10:54.085Z,48.83
2018-02-07T18:13:22.091Z,56.37
2018-02-07T18:15:49.542Z,53.43
2018-02-07T18:18:17.774Z,49.90
2018-02-07T18:20:45.234Z,53.40
2018-02-07T18:23:13.582Z,50.33
2018-02-07T18:25:41.446Z,50.27
2018-02-07T18:28:08.960Z,51.00
2018-02-07T18:30:36.419Z,54.53
2018-02-07T18:33:03.893Z,48.37
2018-02-07T18:35:31.389Z,50.97
2018-02-07T18:37:58.849Z,52.47
2018-02-07T18:40:26.331Z,54.90
2018-02-07T18:42:53.849Z,49.33
2018-02-07T18:45:21.329Z,54.30
2018-02-07T18:47:48.807Z,49.10
2018-02-07T18:50:16.394Z,46.67
2018-02-07T18:52:44.190Z,48.03
2018-02-07T18:55:11.648Z,52.60
2018-02-07T18:57:39.151Z,53.37
2018-02-07T19:00:06.610Z,48.60
2018-02-07T19:02:34.102Z,55.27
2018-02-07T19:05:01.590Z,51.87
2018-02-07T19:07:29.082Z,46.67
2018-02-07T19:09:56.562Z,51.07
2018-02-07T19:12:24.138Z,52.53
2018-02-07T19:14:51.596Z,49.80
2018-02-07T19:17:19.058Z,47.67
2018-02-07T19:19:46.530Z,49.87
2018-02-07T19:22:14.778Z,52.10
2018-02-07T19:24:42.380Z,49.43
2018-02-07T19:27:11.770Z,49.37
2018-02-07T19:29:39.263Z,50.07
2018-02-07T19:32:06.717Z,48.33
2018-02-07T19:34:34.179Z,48.90
2018-02-07T19:37:02.401Z,48.97
2018-02-07T19:39:29.949Z,48.97
2018-02-07T19:41:58.225Z,46.33
2018-02-07T19:44:25.682Z,53.00
2018-02-07T19:46:53.138Z,46.93
2018-02-07T19:49:20.596Z,48.47
2018-02-07T19:51:48.826Z,48.83
2018-02-07T19:54:16.284Z,51.93
2018-02-07T19:56:44.521Z,50.97
2018-02-07T19:59:12.295Z,52.83
2018-02-07T20:01:39.860Z,52.50
2018-02-07T20:04:07.578Z,52.40
2018-02-07T20:06:35.219Z,52.80
2018-02-07T20:09:02.909Z,60.87
2018-02-07T20:11:30.598Z,59.60
2018-02-07T20:13:59.015Z,56.37
2018-02-07T20:16:27.300Z,55.53
2018-02-07T20:18:54.834Z,53.00
2018-02-07T20:21:22.318Z,53.97
2018-02-07T20:23:49.775Z,54.63
2018-02-07T20:26:17.250Z,64.00
2018-02-07T20:28:44.702Z,58.73
2018-02-07T20:31:12.938Z,59.60
2018-02-07T20:33:40.447Z,55.30
2018-02-07T20:36:07.926Z,66.27
2018-02-07T20:38:35.397Z,61.10
2018-02-07T20:41:02.872Z,66.83
2018-02-07T20:43:30.364Z,61.27
2018-02-07T20:45:57.841Z,72.87
2018-02-07T20:48:25.306Z,70.90
2018-02-07T20:50:52.812Z,74.70
2018-02-07T20:53:20.289Z,70.43
2018-02-07T20:55:47.778Z,74.57
2018-02-07T20:58:15.297Z,72.13
2018-02-07T21:00:43.568Z,73.63
2018-02-07T21:03:11.057Z,75.73
2018-02-07T21:05:38.520Z,72.80
2018-02-07T21:08:06.102Z,79.30
2018-02-07T21:10:33.565Z,77.57
2018-02-07T21:13:01.218Z,74.40
2018-02-07T21:15:28.654Z,69.67
2018-02-07T21:17:56.121Z,76.70
2018-02-07T21:20:23.579Z,72.57
2018-02-07T21:22:51.094Z,81.07
2018-02-07T21:25:18.573Z,80.53
2018-02-07T21:27:46.059Z,75.93
2018-02-07T21:30:13.547Z,70.93
2018-02-07T21:32:41.840Z,86.13
2018-02-07T21:35:09.305Z,82.00
2018-02-07T21:37:36.773Z,82.83
2018-02-07T21:40:04.278Z,82.23
2018-02-07T21:42:31.744Z,99.43
2018-02-07T21:44:59.207Z,94.87
2018-02-07T21:47:26.730Z,95.90
2018-02-07T21:49:54.211Z,96.20
2018-02-07T21:52:21.677Z,85.80
2018-02-07T21:54:49.134Z,90.27
2018-02-07T21:57:16.658Z,90.57
2018-02-07T21:59:44.122Z,89.67
2018-02-07T22:02:11.585Z,96.27
2018-02-07T22:04:39.088Z,87.87
2018-02-07T22:07:06.601Z,94.77
2018-02-07T22:09:34.161Z,86.60
2018-02-07T22:12:01.641Z,81.10
2018-02-07T22:14:29.125Z,91.07
2018-02-07T22:16:56.596Z,96.40
2018-02-07T22:19:24.194Z,94.10
2018-02-07T22:21:51.655Z,88.37
2018-02-07T22:24:19.145Z,84.37
2018-02-07T22:26:46.617Z,94.97
2018-02-07T22:29:14.841Z,97.87
2018-02-07T22:31:42.337Z,81.93
2018-02-07T22:34:09.849Z,81.70
2018-02-07T22:36:37.399Z,81.67
2018-02-07T22:39:04.863Z,81.20
2018-02-07T22:41:32.329Z,94.73
2018-02-07T22:43:59.841Z,89.83
2018-02-07T22:46:27.321Z,101.13
2018-02-07T22:48:54.789Z,91.90
2018-02-07T22:51:22.262Z,90.83
2018-02-07T22:53:49.831Z,89.17
2018-02-07T22:56:17.357Z,89.63
2018-02-07T22:58:44.842Z,91.33
2018-02-07T23:01:12.310Z,91.30
2018-02-07T23:03:39.831Z,88.60
2018-02-07T23:06:07.301Z,91.77
2018-02-07T23:08:34.765Z,89.40
2018-02-07T23:11:02.237Z,92.60
2018-02-07T23:13:29.730Z,91.67
2018-02-07T23:15:57.214Z,90.23
2018-02-07T23:18:24.674Z,91.03
2018-02-07T23:20:52.137Z,96.23
2018-02-07T23:23:19.593Z,91.50
2018-02-07T23:25:47.049Z,91.70
2018-02-07T23:28:14.625Z,86.50
2018-02-07T23:30:42.085Z,89.83
2018-02-07T23:33:10.273Z,85.87
2018-02-07T23:35:37.737Z,88.50
2018-02-07T23:38:05.969Z,88.83
2018-02-07T23:40:33.424Z,85.87
2018-02-07T23:43:00.939Z,91.77
2018-02-07T23:45:28.401Z,81.23
2018-02-07T23:47:55.921Z,85.73
2018-02-07T23:50:23.493Z,79.60
2018-02-07T23:52:51.008Z,85.90
2018-02-07T23:55:18.554Z,88.57
2018-02-07T23:57:46.017Z,77.33
